This is the latest recevied weather packets stored in our database for station/object KK7MLS-13. If no packets are shown the sender has not sent any weather packets the latest 10 day(s).
| Time | Temp. | Humidity | Pressure | Rain* | Wind** | Luminosity | Snow |
|---|---|---|---|---|---|---|---|
| 1777760586 | 23.89° C | 55% | 1013.1 hPa | 0 mm | - | 478 W/m² | - |
| 1777760281 | 23.89° C | 50% | 1013.1 hPa | 0 mm | - | 463 W/m² | - |
| 1777759978 | 22.78° C | 52% | 1013.1 hPa | 0 mm | - | 535 W/m² | - |
| 1777759675 | 21.67° C | 59% | 1013.3 hPa | 0 mm | - | 597 W/m² | - |
| 1777759371 | 21.67° C | 54% | 1013.4 hPa | 0 mm | - | 546 W/m² | - |
| 1777759067 | 21.67° C | 53% | 1013.5 hPa | 0 mm | - | 538 W/m² | - |
| 1777758765 | 21.11° C | 54% | 1013.3 hPa | 0 mm | - | 581 W/m² | - |
| 1777758462 | 21.11° C | 57% | 1013.5 hPa | 0 mm | - | 563 W/m² | - |
| 1777758159 | 21.11° C | 58% | 1013.7 hPa | 0 mm | - | 418 W/m² | - |
| 1777757856 | 21.11° C | 58% | 1013.6 hPa | 0 mm | - | 511 W/m² | - |
| 1777757553 | 21.67° C | 54% | 1013.8 hPa | 0 mm | - | 544 W/m² | - |
| 1777757252 | 21.67° C | 56% | 1013.8 hPa | 0 mm | - | 526 W/m² | - |
| 1777756950 | 21.67° C | 55% | 1014.1 hPa | 0 mm | - | 520 W/m² | - |
| 1777756646 | 20.56° C | 61% | 1014 hPa | 0 mm | - | 613 W/m² | - |
| 1777756343 | 20.56° C | 57% | 1014.2 hPa | 0 mm | - | 644 W/m² | - |
| 1777756040 | 19.44° C | 60% | 1014 hPa | 0 mm | - | 679 W/m² | - |
| 1777755737 | 19.44° C | 62% | 1014.2 hPa | 0 mm | - | 633 W/m² | - |
| 1777755434 | 18.89° C | 60% | 1014.3 hPa | 0 mm | - | 564 W/m² | - |
| 1777755130 | 19.44° C | 61% | 1014.4 hPa | 0 mm | - | 575 W/m² | - |
| 1777754827 | 19.44° C | 59% | 1014.5 hPa | 0 mm | - | 487 W/m² | - |
| 1777754526 | 18.89° C | 64% | 1014.7 hPa | 0 mm | - | 461 W/m² | - |
| 1777754223 | 18.89° C | 61% | 1014.6 hPa | 0 mm | - | 607 W/m² | - |
| 1777753921 | 18.33° C | 64% | 1014.7 hPa | 0 mm | - | 732 W/m² | - |
| 1777753620 | 18.89° C | 60% | 1014.6 hPa | 0 mm | - | 669 W/m² | - |
| 1777753319 | 18.33° C | 66% | 1015.1 hPa | 0 mm | - | 520 W/m² | - |
* Rain latest hour (hover to see other rain measurements)
** Current wind speed in m/s (hover to see current wind gust speed)